< < Back
Terminal Aerodrome Forecast


Current Version              Previous Versions:   1  2  3  4  5  6  7  8  9  

Terminal Aerodrome Forecast

371
FTUS42 KGSP 231740
TAFCLT
TAF
KCLT 231740Z 2318/2418 05008KT 2SM RA BR OVC007 WS020/12040KT
     FM232300 09012KT 2SM +SHRA BR OVC004
      TEMPO 2323/2402 1SM TSRA OVC004CB
     FM240200 17011KT 1 1/2SM SHRA BR OVC005 WS020/20040KT
     FM240700 19011KT 6SM BR BKN007 OVC010
     FM241500 21015G23KT P6SM BKN250=

Latest METAR

179
SAUS70 KWBC 240000
MTRCLT
METAR KCLT 232352Z 13012KT 1 3/4SM +RA BR OVC005 14/13 A2982 RMK AO2 SFC
VIS 2 1/2 SLP097 P0019 60081 T01440133 10144 20094 56031


USA.gov is the U.S. government's official web portal to all federal, state and local government web resources and services.